sensor_id;sensor_type;location;lat;lon;timestamp;P1;durP1;ratioP1;P2;durP2;ratioP2
18364;SDS011;9309;52.126;11.616;2023-07-13T00:01:52;3.00;;;1.90;;
18364;SDS011;9309;52.126;11.616;2023-07-13T00:04:19;1.90;;;1.80;;
18364;SDS011;9309;52.126;11.616;2023-07-13T00:06:49;1.90;;;1.80;;
18364;SDS011;9309;52.126;11.616;2023-07-13T00:09:16;2.10;;;2.00;;
18364;SDS011;9309;52.126;11.616;2023-07-13T00:11:44;4.97;;;2.13;;
18364;SDS011;9309;52.126;11.616;2023-07-13T00:14:13;2.43;;;1.73;;
18364;SDS011;9309;52.126;11.616;2023-07-13T00:16:41;2.10;;;2.00;;
18364;SDS011;9309;52.126;11.616;2023-07-13T00:19:09;1.80;;;1.80;;
18364;SDS011;9309;52.126;11.616;2023-07-13T00:21:35;1.60;;;1.60;;
18364;SDS011;9309;52.126;11.616;2023-07-13T00:24:02;3.37;;;1.57;;
18364;SDS011;9309;52.126;11.616;2023-07-13T00:26:30;7.83;;;2.10;;
18364;SDS011;9309;52.126;11.616;2023-07-13T00:28:57;7.03;;;1.97;;
18364;SDS011;9309;52.126;11.616;2023-07-13T00:31:25;2.40;;;2.20;;
18364;SDS011;9309;52.126;11.616;2023-07-13T00:33:52;2.43;;;2.03;;
18364;SDS011;9309;52.126;11.616;2023-07-13T00:36:19;2.30;;;2.10;;
18364;SDS011;9309;52.126;11.616;2023-07-13T00:38:46;5.20;;;2.43;;
18364;SDS011;9309;52.126;11.616;2023-07-13T00:41:13;2.30;;;2.20;;
18364;SDS011;9309;52.126;11.616;2023-07-13T00:43:40;2.40;;;2.30;;
18364;SDS011;9309;52.126;11.616;2023-07-13T00:46:14;3.03;;;2.47;;
18364;SDS011;9309;52.126;11.616;2023-07-13T00:48:51;3.07;;;2.27;;
18364;SDS011;9309;52.126;11.616;2023-07-13T00:51:21;2.80;;;1.97;;
18364;SDS011;9309;52.126;11.616;2023-07-13T00:53:53;6.13;;;2.30;;
18364;SDS011;9309;52.126;11.616;2023-07-13T00:56:22;5.80;;;2.63;;
18364;SDS011;9309;52.126;11.616;2023-07-13T00:58:49;2.80;;;2.00;;
18364;SDS011;9309;52.126;11.616;2023-07-13T01:01:17;2.27;;;2.07;;
18364;SDS011;9309;52.126;11.616;2023-07-13T01:03:44;2.30;;;1.80;;
18364;SDS011;9309;52.126;11.616;2023-07-13T01:06:14;2.30;;;2.20;;
18364;SDS011;9309;52.126;11.616;2023-07-13T01:08:42;2.00;;;1.90;;
18364;SDS011;9309;52.126;11.616;2023-07-13T01:11:09;2.53;;;2.43;;
18364;SDS011;9309;52.126;11.616;2023-07-13T01:13:36;2.53;;;2.33;;
18364;SDS011;9309;52.126;11.616;2023-07-13T01:16:04;2.13;;;2.10;;
18364;SDS011;9309;52.126;11.616;2023-07-13T01:18:39;4.70;;;2.10;;
18364;SDS011;9309;52.126;11.616;2023-07-13T01:21:07;1.90;;;1.80;;
18364;SDS011;9309;52.126;11.616;2023-07-13T01:23:34;2.13;;;2.03;;
18364;SDS011;9309;52.126;11.616;2023-07-13T01:26:01;2.10;;;2.00;;
18364;SDS011;9309;52.126;11.616;2023-07-13T01:28:28;2.00;;;1.90;;
18364;SDS011;9309;52.126;11.616;2023-07-13T01:30:56;1.80;;;1.80;;
18364;SDS011;9309;52.126;11.616;2023-07-13T01:33:24;2.03;;;2.03;;
18364;SDS011;9309;52.126;11.616;2023-07-13T01:35:51;2.63;;;2.43;;
18364;SDS011;9309;52.126;11.616;2023-07-13T01:38:21;2.00;;;1.90;;
18364;SDS011;9309;52.126;11.616;2023-07-13T01:40:49;2.47;;;2.37;;
18364;SDS011;9309;52.126;11.616;2023-07-13T01:43:18;4.20;;;2.17;;
18364;SDS011;9309;52.126;11.616;2023-07-13T01:45:46;4.60;;;2.13;;
18364;SDS011;9309;52.126;11.616;2023-07-13T01:48:13;4.33;;;2.37;;
18364;SDS011;9309;52.126;11.616;2023-07-13T01:50:40;2.23;;;2.00;;
18364;SDS011;9309;52.126;11.616;2023-07-13T01:53:07;2.40;;;2.30;;
18364;SDS011;9309;52.126;11.616;2023-07-13T01:55:36;4.03;;;2.50;;
18364;SDS011;9309;52.126;11.616;2023-07-13T01:58:03;4.07;;;2.83;;
18364;SDS011;9309;52.126;11.616;2023-07-13T02:00:31;2.47;;;2.27;;
18364;SDS011;9309;52.126;11.616;2023-07-13T02:03:01;2.87;;;2.17;;
18364;SDS011;9309;52.126;11.616;2023-07-13T02:05:28;1.93;;;1.87;;
18364;SDS011;9309;52.126;11.616;2023-07-13T02:07:54;2.57;;;2.37;;
18364;SDS011;9309;52.126;11.616;2023-07-13T02:10:21;2.70;;;2.50;;
18364;SDS011;9309;52.126;11.616;2023-07-13T02:12:49;2.87;;;2.63;;
18364;SDS011;9309;52.126;11.616;2023-07-13T02:15:17;3.07;;;2.40;;
18364;SDS011;9309;52.126;11.616;2023-07-13T02:17:44;3.10;;;2.90;;
18364;SDS011;9309;52.126;11.616;2023-07-13T02:20:10;3.73;;;2.80;;
18364;SDS011;9309;52.126;11.616;2023-07-13T02:22:37;6.13;;;2.83;;
18364;SDS011;9309;52.126;11.616;2023-07-13T02:25:04;3.23;;;2.97;;
18364;SDS011;9309;52.126;11.616;2023-07-13T02:27:32;9.57;;;2.83;;
18364;SDS011;9309;52.126;11.616;2023-07-13T02:30:00;2.63;;;2.43;;
18364;SDS011;9309;52.126;11.616;2023-07-13T02:32:27;3.37;;;2.53;;
18364;SDS011;9309;52.126;11.616;2023-07-13T02:34:54;2.87;;;2.70;;
18364;SDS011;9309;52.126;11.616;2023-07-13T02:37:21;2.20;;;2.10;;
18364;SDS011;9309;52.126;11.616;2023-07-13T02:39:48;2.63;;;2.43;;
18364;SDS011;9309;52.126;11.616;2023-07-13T02:42:14;2.20;;;2.20;;
18364;SDS011;9309;52.126;11.616;2023-07-13T02:44:43;2.50;;;2.40;;
18364;SDS011;9309;52.126;11.616;2023-07-13T02:47:11;2.20;;;2.10;;
18364;SDS011;9309;52.126;11.616;2023-07-13T02:49:39;3.50;;;2.30;;
18364;SDS011;9309;52.126;11.616;2023-07-13T02:52:05;4.40;;;2.00;;
18364;SDS011;9309;52.126;11.616;2023-07-13T02:54:32;2.77;;;2.20;;
18364;SDS011;9309;52.126;11.616;2023-07-13T02:57:02;2.43;;;2.30;;
18364;SDS011;9309;52.126;11.616;2023-07-13T03:00:24;2.00;;;1.90;;
18364;SDS011;9309;52.126;11.616;2023-07-13T03:02:52;2.27;;;2.17;;
18364;SDS011;9309;52.126;11.616;2023-07-13T03:05:22;2.47;;;2.27;;
18364;SDS011;9309;52.126;11.616;2023-07-13T03:07:49;2.63;;;2.47;;
18364;SDS011;9309;52.126;11.616;2023-07-13T03:10:16;4.10;;;2.27;;
18364;SDS011;9309;52.126;11.616;2023-07-13T03:12:47;2.53;;;2.30;;
18364;SDS011;9309;52.126;11.616;2023-07-13T03:15:21;5.50;;;2.50;;
18364;SDS011;9309;52.126;11.616;2023-07-13T03:17:51;2.23;;;2.13;;
18364;SDS011;9309;52.126;11.616;2023-07-13T03:20:18;2.60;;;2.47;;
18364;SDS011;9309;52.126;11.616;2023-07-13T03:22:45;2.50;;;2.37;;
18364;SDS011;9309;52.126;11.616;2023-07-13T03:25:12;3.93;;;3.43;;
18364;SDS011;9309;52.126;11.616;2023-07-13T03:27:39;4.83;;;2.87;;
18364;SDS011;9309;52.126;11.616;2023-07-13T03:30:08;2.07;;;2.07;;
18364;SDS011;9309;52.126;11.616;2023-07-13T03:32:36;3.50;;;3.03;;
18364;SDS011;9309;52.126;11.616;2023-07-13T03:35:05;2.87;;;2.77;;
18364;SDS011;9309;52.126;11.616;2023-07-13T03:37:32;3.67;;;2.57;;
18364;SDS011;9309;52.126;11.616;2023-07-13T03:39:59;2.30;;;2.20;;
18364;SDS011;9309;52.126;11.616;2023-07-13T03:42:26;2.00;;;2.00;;
18364;SDS011;9309;52.126;11.616;2023-07-13T03:44:53;2.83;;;2.63;;
18364;SDS011;9309;52.126;11.616;2023-07-13T03:47:21;1.90;;;1.90;;
18364;SDS011;9309;52.126;11.616;2023-07-13T03:49:48;2.30;;;2.20;;
18364;SDS011;9309;52.126;11.616;2023-07-13T03:52:16;5.53;;;2.63;;
18364;SDS011;9309;52.126;11.616;2023-07-13T03:54:43;2.83;;;2.30;;
18364;SDS011;9309;52.126;11.616;2023-07-13T03:57:10;2.50;;;2.30;;
18364;SDS011;9309;52.126;11.616;2023-07-13T03:59:37;4.30;;;2.10;;
18364;SDS011;9309;52.126;11.616;2023-07-13T04:02:04;2.30;;;2.13;;
18364;SDS011;9309;52.126;11.616;2023-07-13T04:04:32;2.67;;;2.13;;
18364;SDS011;9309;52.126;11.616;2023-07-13T04:06:59;6.43;;;2.67;;
18364;SDS011;9309;52.126;11.616;2023-07-13T04:09:27;2.97;;;2.77;;
18364;SDS011;9309;52.126;11.616;2023-07-13T04:11:54;2.43;;;2.27;;
18364;SDS011;9309;52.126;11.616;2023-07-13T04:14:20;4.93;;;2.60;;
18364;SDS011;9309;52.126;11.616;2023-07-13T04:16:47;4.57;;;2.90;;
18364;SDS011;9309;52.126;11.616;2023-07-13T04:19:13;2.87;;;2.67;;
18364;SDS011;9309;52.126;11.616;2023-07-13T04:21:40;2.20;;;2.10;;
18364;SDS011;9309;52.126;11.616;2023-07-13T04:24:07;2.43;;;2.20;;
18364;SDS011;9309;52.126;11.616;2023-07-13T04:26:35;1.93;;;1.83;;
18364;SDS011;9309;52.126;11.616;2023-07-13T04:29:03;1.93;;;1.83;;
18364;SDS011;9309;52.126;11.616;2023-07-13T04:31:30;2.60;;;2.40;;
18364;SDS011;9309;52.126;11.616;2023-07-13T04:33:57;4.20;;;2.10;;
18364;SDS011;9309;52.126;11.616;2023-07-13T04:36:24;2.30;;;2.20;;
18364;SDS011;9309;52.126;11.616;2023-07-13T04:38:52;2.20;;;2.10;;
18364;SDS011;9309;52.126;11.616;2023-07-13T04:41:20;2.20;;;2.00;;
18364;SDS011;9309;52.126;11.616;2023-07-13T04:43:48;3.60;;;2.00;;
18364;SDS011;9309;52.126;11.616;2023-07-13T04:46:15;2.37;;;2.27;;
18364;SDS011;9309;52.126;11.616;2023-07-13T04:48:44;2.07;;;2.07;;
18364;SDS011;9309;52.126;11.616;2023-07-13T04:51:12;3.43;;;2.20;;
18364;SDS011;9309;52.126;11.616;2023-07-13T04:53:38;2.17;;;2.07;;
18364;SDS011;9309;52.126;11.616;2023-07-13T04:56:05;2.33;;;2.23;;
18364;SDS011;9309;52.126;11.616;2023-07-13T04:58:32;3.83;;;1.60;;
18364;SDS011;9309;52.126;11.616;2023-07-13T05:01:01;1.87;;;1.77;;
18364;SDS011;9309;52.126;11.616;2023-07-13T05:03:28;1.53;;;1.53;;
18364;SDS011;9309;52.126;11.616;2023-07-13T05:05:56;2.10;;;2.00;;
18364;SDS011;9309;52.126;11.616;2023-07-13T05:08:23;1.73;;;1.73;;
18364;SDS011;9309;52.126;11.616;2023-07-13T05:10:50;1.80;;;1.80;;
18364;SDS011;9309;52.126;11.616;2023-07-13T05:13:17;2.37;;;2.10;;
18364;SDS011;9309;52.126;11.616;2023-07-13T05:15:44;2.07;;;1.97;;
18364;SDS011;9309;52.126;11.616;2023-07-13T05:18:12;1.80;;;1.70;;
18364;SDS011;9309;52.126;11.616;2023-07-13T05:20:39;3.37;;;2.00;;
18364;SDS011;9309;52.126;11.616;2023-07-13T05:23:06;4.10;;;2.70;;
18364;SDS011;9309;52.126;11.616;2023-07-13T05:25:32;2.27;;;2.17;;
18364;SDS011;9309;52.126;11.616;2023-07-13T05:27:59;2.07;;;1.97;;
18364;SDS011;9309;52.126;11.616;2023-07-13T05:30:25;2.33;;;1.90;;
18364;SDS011;9309;52.126;11.616;2023-07-13T05:32:52;2.97;;;2.20;;
18364;SDS011;9309;52.126;11.616;2023-07-13T05:35:20;1.90;;;1.80;;
18364;SDS011;9309;52.126;11.616;2023-07-13T05:37:46;1.93;;;1.87;;
18364;SDS011;9309;52.126;11.616;2023-07-13T05:40:13;2.10;;;1.90;;
18364;SDS011;9309;52.126;11.616;2023-07-13T05:42:40;4.13;;;2.23;;
18364;SDS011;9309;52.126;11.616;2023-07-13T05:45:07;3.10;;;2.80;;
18364;SDS011;9309;52.126;11.616;2023-07-13T05:47:34;2.00;;;1.90;;
18364;SDS011;9309;52.126;11.616;2023-07-13T05:50:01;2.13;;;2.03;;
18364;SDS011;9309;52.126;11.616;2023-07-13T05:52:29;2.67;;;1.80;;
18364;SDS011;9309;52.126;11.616;2023-07-13T05:54:56;1.63;;;1.63;;
18364;SDS011;9309;52.126;11.616;2023-07-13T05:57:22;1.97;;;1.87;;
18364;SDS011;9309;52.126;11.616;2023-07-13T05:59:49;4.17;;;2.03;;
18364;SDS011;9309;52.126;11.616;2023-07-13T06:02:16;2.00;;;1.93;;
18364;SDS011;9309;52.126;11.616;2023-07-13T06:04:42;1.77;;;1.77;;
18364;SDS011;9309;52.126;11.616;2023-07-13T06:07:09;2.27;;;1.67;;
18364;SDS011;9309;52.126;11.616;2023-07-13T06:09:37;2.80;;;1.70;;
18364;SDS011;9309;52.126;11.616;2023-07-13T06:12:04;1.63;;;1.63;;
18364;SDS011;9309;52.126;11.616;2023-07-13T06:14:31;12.30;;;1.80;;
18364;SDS011;9309;52.126;11.616;2023-07-13T06:16:58;1.45;;;1.45;;
18364;SDS011;9309;52.126;11.616;2023-07-13T06:19:25;1.67;;;1.52;;
18364;SDS011;9309;52.126;11.616;2023-07-13T06:21:51;1.80;;;1.60;;
18364;SDS011;9309;52.126;11.616;2023-07-13T06:24:18;2.97;;;1.50;;
18364;SDS011;9309;52.126;11.616;2023-07-13T06:26:46;5.73;;;1.93;;
18364;SDS011;9309;52.126;11.616;2023-07-13T06:29:12;2.47;;;1.80;;
18364;SDS011;9309;52.126;11.616;2023-07-13T06:31:39;1.80;;;1.52;;
18364;SDS011;9309;52.126;11.616;2023-07-13T06:34:06;5.88;;;2.00;;
18364;SDS011;9309;52.126;11.616;2023-07-13T06:36:32;1.42;;;1.42;;
18364;SDS011;9309;52.126;11.616;2023-07-13T06:39:01;2.78;;;1.50;;
18364;SDS011;9309;52.126;11.616;2023-07-13T06:41:27;1.40;;;1.30;;
18364;SDS011;9309;52.126;11.616;2023-07-13T06:43:58;2.20;;;2.10;;
18364;SDS011;9309;52.126;11.616;2023-07-13T06:46:25;1.57;;;1.57;;
18364;SDS011;9309;52.126;11.616;2023-07-13T06:48:54;1.70;;;1.70;;
18364;SDS011;9309;52.126;11.616;2023-07-13T06:51:21;2.10;;;2.00;;
18364;SDS011;9309;52.126;11.616;2023-07-13T06:53:48;1.20;;;1.20;;
18364;SDS011;9309;52.126;11.616;2023-07-13T06:56:15;1.70;;;1.60;;
18364;SDS011;9309;52.126;11.616;2023-07-13T06:58:41;1.65;;;1.55;;
18364;SDS011;9309;52.126;11.616;2023-07-13T07:01:09;2.53;;;1.52;;
18364;SDS011;9309;52.126;11.616;2023-07-13T07:03:36;1.52;;;1.52;;
18364;SDS011;9309;52.126;11.616;2023-07-13T07:06:06;1.75;;;1.65;;
18364;SDS011;9309;52.126;11.616;2023-07-13T07:08:38;1.27;;;1.27;;
18364;SDS011;9309;52.126;11.616;2023-07-13T07:11:05;1.25;;;1.25;;
18364;SDS011;9309;52.126;11.616;2023-07-13T07:13:34;2.50;;;1.58;;
18364;SDS011;9309;52.126;11.616;2023-07-13T07:16:06;4.30;;;1.30;;
18364;SDS011;9309;52.126;11.616;2023-07-13T07:18:35;2.85;;;1.25;;
18364;SDS011;9309;52.126;11.616;2023-07-13T07:21:02;1.70;;;1.60;;
18364;SDS011;9309;52.126;11.616;2023-07-13T07:23:29;2.83;;;1.65;;
18364;SDS011;9309;52.126;11.616;2023-07-13T07:25:55;1.10;;;1.10;;
18364;SDS011;9309;52.126;11.616;2023-07-13T07:28:22;1.35;;;1.20;;
18364;SDS011;9309;52.126;11.616;2023-07-13T07:30:49;1.20;;;1.20;;
18364;SDS011;9309;52.126;11.616;2023-07-13T07:33:19;2.55;;;1.20;;
18364;SDS011;9309;52.126;11.616;2023-07-13T07:35:47;1.42;;;1.27;;
18364;SDS011;9309;52.126;11.616;2023-07-13T07:38:14;1.75;;;1.65;;
18364;SDS011;9309;52.126;11.616;2023-07-13T07:40:41;2.90;;;1.38;;
18364;SDS011;9309;52.126;11.616;2023-07-13T07:43:09;1.67;;;1.58;;
18364;SDS011;9309;52.126;11.616;2023-07-13T07:45:37;1.83;;;1.25;;
18364;SDS011;9309;52.126;11.616;2023-07-13T07:48:04;4.60;;;1.67;;
18364;SDS011;9309;52.126;11.616;2023-07-13T07:50:32;1.23;;;1.23;;
18364;SDS011;9309;52.126;11.616;2023-07-13T07:53:00;1.65;;;1.40;;
18364;SDS011;9309;52.126;11.616;2023-07-13T07:55:27;1.77;;;1.67;;
18364;SDS011;9309;52.126;11.616;2023-07-13T07:57:55;3.40;;;1.38;;
18364;SDS011;9309;52.126;11.616;2023-07-13T08:00:22;4.00;;;1.50;;
18364;SDS011;9309;52.126;11.616;2023-07-13T08:02:52;1.35;;;1.30;;
18364;SDS011;9309;52.126;11.616;2023-07-13T08:05:19;4.80;;;1.52;;
18364;SDS011;9309;52.126;11.616;2023-07-13T08:07:49;2.13;;;1.70;;
18364;SDS011;9309;52.126;11.616;2023-07-13T08:10:17;1.50;;;1.48;;
18364;SDS011;9309;52.126;11.616;2023-07-13T08:12:44;1.27;;;1.25;;
18364;SDS011;9309;52.126;11.616;2023-07-13T08:15:13;4.00;;;1.38;;
18364;SDS011;9309;52.126;11.616;2023-07-13T08:17:41;1.83;;;1.73;;
18364;SDS011;9309;52.126;11.616;2023-07-13T08:20:08;1.80;;;1.63;;
18364;SDS011;9309;52.126;11.616;2023-07-13T08:22:36;2.00;;;1.80;;
18364;SDS011;9309;52.126;11.616;2023-07-13T08:25:02;2.13;;;2.03;;
18364;SDS011;9309;52.126;11.616;2023-07-13T08:27:31;3.83;;;2.17;;
18364;SDS011;9309;52.126;11.616;2023-07-13T08:29:58;1.20;;;1.20;;
18364;SDS011;9309;52.126;11.616;2023-07-13T08:32:25;1.75;;;1.73;;
18364;SDS011;9309;52.126;11.616;2023-07-13T08:34:52;0.93;;;0.93;;
18364;SDS011;9309;52.126;11.616;2023-07-13T08:37:19;1.52;;;1.23;;
18364;SDS011;9309;52.126;11.616;2023-07-13T08:39:46;1.02;;;1.02;;
18364;SDS011;9309;52.126;11.616;2023-07-13T08:42:14;3.22;;;1.30;;
18364;SDS011;9309;52.126;11.616;2023-07-13T08:44:52;2.53;;;1.15;;
18364;SDS011;9309;52.126;11.616;2023-07-13T08:47:23;2.63;;;1.20;;
18364;SDS011;9309;52.126;11.616;2023-07-13T08:49:51;2.33;;;1.25;;
18364;SDS011;9309;52.126;11.616;2023-07-13T08:52:23;0.98;;;0.93;;
18364;SDS011;9309;52.126;11.616;2023-07-13T08:54:56;1.45;;;1.20;;
18364;SDS011;9309;52.126;11.616;2023-07-13T08:57:27;1.45;;;1.15;;
18364;SDS011;9309;52.126;11.616;2023-07-13T09:00:00;1.27;;;1.13;;
18364;SDS011;9309;52.126;11.616;2023-07-13T09:02:33;2.30;;;0.95;;
18364;SDS011;9309;52.126;11.616;2023-07-13T09:05:09;1.58;;;1.27;;
18364;SDS011;9309;52.126;11.616;2023-07-13T09:07:40;1.35;;;1.17;;
18364;SDS011;9309;52.126;11.616;2023-07-13T09:10:19;1.40;;;1.40;;
18364;SDS011;9309;52.126;11.616;2023-07-13T09:12:56;1.10;;;1.10;;
18364;SDS011;9309;52.126;11.616;2023-07-13T09:15:32;3.13;;;1.27;;
18364;SDS011;9309;52.126;11.616;2023-07-13T09:18:06;2.05;;;1.30;;
18364;SDS011;9309;52.126;11.616;2023-07-13T09:20:37;1.40;;;1.33;;
18364;SDS011;9309;52.126;11.616;2023-07-13T09:23:12;2.47;;;0.90;;
18364;SDS011;9309;52.126;11.616;2023-07-13T09:25:43;1.10;;;1.10;;
18364;SDS011;9309;52.126;11.616;2023-07-13T09:28:14;7.93;;;1.55;;
18364;SDS011;9309;52.126;11.616;2023-07-13T09:30:46;2.38;;;1.30;;
18364;SDS011;9309;52.126;11.616;2023-07-13T09:33:18;1.30;;;1.30;;
18364;SDS011;9309;52.126;11.616;2023-07-13T09:35:45;0.95;;;0.95;;
18364;SDS011;9309;52.126;11.616;2023-07-13T09:38:13;1.65;;;1.65;;
18364;SDS011;9309;52.126;11.616;2023-07-13T09:40:49;1.00;;;1.00;;
18364;SDS011;9309;52.126;11.616;2023-07-13T09:43:25;1.00;;;1.00;;
18364;SDS011;9309;52.126;11.616;2023-07-13T09:45:55;1.02;;;1.02;;
18364;SDS011;9309;52.126;11.616;2023-07-13T09:48:22;3.33;;;1.90;;
18364;SDS011;9309;52.126;11.616;2023-07-13T09:50:49;3.30;;;1.17;;
18364;SDS011;9309;52.126;11.616;2023-07-13T09:53:22;1.23;;;1.15;;
18364;SDS011;9309;52.126;11.616;2023-07-13T09:55:49;2.05;;;1.10;;
18364;SDS011;9309;52.126;11.616;2023-07-13T09:58:17;1.10;;;1.10;;
18364;SDS011;9309;52.126;11.616;2023-07-13T10:00:54;2.42;;;1.17;;
18364;SDS011;9309;52.126;11.616;2023-07-13T10:03:25;1.30;;;1.13;;
18364;SDS011;9309;52.126;11.616;2023-07-13T10:05:53;1.23;;;1.23;;
18364;SDS011;9309;52.126;11.616;2023-07-13T10:08:23;0.95;;;0.93;;
18364;SDS011;9309;52.126;11.616;2023-07-13T10:10:53;0.70;;;0.70;;
18364;SDS011;9309;52.126;11.616;2023-07-13T10:13:32;1.05;;;1.05;;
18364;SDS011;9309;52.126;11.616;2023-07-13T10:16:03;1.15;;;1.13;;
18364;SDS011;9309;52.126;11.616;2023-07-13T10:18:35;1.88;;;1.60;;
18364;SDS011;9309;52.126;11.616;2023-07-13T10:21:10;1.92;;;1.08;;
18364;SDS011;9309;52.126;11.616;2023-07-13T10:23:39;1.25;;;1.20;;
18364;SDS011;9309;52.126;11.616;2023-07-13T10:26:09;0.90;;;0.90;;
18364;SDS011;9309;52.126;11.616;2023-07-13T10:28:39;3.58;;;1.50;;
18364;SDS011;9309;52.126;11.616;2023-07-13T10:31:10;0.90;;;0.90;;
18364;SDS011;9309;52.126;11.616;2023-07-13T10:33:41;0.80;;;0.70;;
18364;SDS011;9309;52.126;11.616;2023-07-13T10:36:12;0.90;;;0.90;;
18364;SDS011;9309;52.126;11.616;2023-07-13T10:38:42;2.83;;;1.05;;
18364;SDS011;9309;52.126;11.616;2023-07-13T10:41:11;9.52;;;1.10;;
18364;SDS011;9309;52.126;11.616;2023-07-13T10:43:43;2.88;;;1.38;;
18364;SDS011;9309;52.126;11.616;2023-07-13T10:46:14;0.88;;;0.88;;
18364;SDS011;9309;52.126;11.616;2023-07-13T10:48:44;0.68;;;0.68;;
18364;SDS011;9309;52.126;11.616;2023-07-13T10:51:16;1.25;;;0.60;;
18364;SDS011;9309;52.126;11.616;2023-07-13T10:53:46;1.27;;;0.70;;
18364;SDS011;9309;52.126;11.616;2023-07-13T10:56:19;1.08;;;0.95;;
18364;SDS011;9309;52.126;11.616;2023-07-13T10:59:01;1.35;;;0.80;;
18364;SDS011;9309;52.126;11.616;2023-07-13T11:01:40;0.77;;;0.60;;
18364;SDS011;9309;52.126;11.616;2023-07-13T11:04:17;0.88;;;0.65;;
18364;SDS011;9309;52.126;11.616;2023-07-13T11:06:47;1.85;;;0.63;;
18364;SDS011;9309;52.126;11.616;2023-07-13T11:12:08;1.35;;;0.65;;
18364;SDS011;9309;52.126;11.616;2023-07-13T15:03:47;9.95;;;1.08;;
18364;SDS011;9309;52.126;11.616;2023-07-13T15:06:17;2.88;;;0.93;;
18364;SDS011;9309;52.126;11.616;2023-07-13T15:08:44;0.82;;;0.82;;
18364;SDS011;9309;52.126;11.616;2023-07-13T15:11:12;2.55;;;1.05;;
18364;SDS011;9309;52.126;11.616;2023-07-13T15:13:40;1.00;;;0.98;;
18364;SDS011;9309;52.126;11.616;2023-07-13T15:16:13;1.30;;;1.23;;
18364;SDS011;9309;52.126;11.616;2023-07-13T15:18:43;0.80;;;0.80;;
18364;SDS011;9309;52.126;11.616;2023-07-13T15:21:19;0.90;;;0.90;;
18364;SDS011;9309;52.126;11.616;2023-07-13T15:23:48;0.77;;;0.77;;
18364;SDS011;9309;52.126;11.616;2023-07-13T15:26:17;0.85;;;0.70;;
18364;SDS011;9309;52.126;11.616;2023-07-13T15:28:45;3.30;;;0.95;;
18364;SDS011;9309;52.126;11.616;2023-07-13T15:31:19;2.83;;;0.93;;
18364;SDS011;9309;52.126;11.616;2023-07-13T15:33:48;1.15;;;1.15;;
18364;SDS011;9309;52.126;11.616;2023-07-13T15:36:16;0.88;;;0.88;;
18364;SDS011;9309;52.126;11.616;2023-07-13T15:38:44;0.70;;;0.70;;
18364;SDS011;9309;52.126;11.616;2023-07-13T15:41:17;0.70;;;0.70;;
18364;SDS011;9309;52.126;11.616;2023-07-13T15:43:48;0.80;;;0.80;;
18364;SDS011;9309;52.126;11.616;2023-07-13T15:46:17;3.10;;;0.73;;
18364;SDS011;9309;52.126;11.616;2023-07-13T15:48:45;3.92;;;1.40;;
18364;SDS011;9309;52.126;11.616;2023-07-13T15:51:12;3.83;;;1.13;;
18364;SDS011;9309;52.126;11.616;2023-07-13T15:53:44;5.15;;;1.10;;
18364;SDS011;9309;52.126;11.616;2023-07-13T15:56:21;4.25;;;1.80;;
18364;SDS011;9309;52.126;11.616;2023-07-13T15:58:49;1.45;;;1.00;;
18364;SDS011;9309;52.126;11.616;2023-07-13T16:01:17;0.75;;;0.75;;
18364;SDS011;9309;52.126;11.616;2023-07-13T16:03:45;1.10;;;1.10;;
18364;SDS011;9309;52.126;11.616;2023-07-13T16:06:13;1.10;;;1.10;;
18364;SDS011;9309;52.126;11.616;2023-07-13T16:08:42;9.65;;;1.20;;
18364;SDS011;9309;52.126;11.616;2023-07-13T16:11:15;1.00;;;0.85;;
18364;SDS011;9309;52.126;11.616;2023-07-13T16:13:47;0.90;;;0.90;;
18364;SDS011;9309;52.126;11.616;2023-07-13T16:16:20;1.10;;;1.10;;
18364;SDS011;9309;52.126;11.616;2023-07-13T16:18:50;1.00;;;1.00;;
18364;SDS011;9309;52.126;11.616;2023-07-13T16:21:19;1.13;;;1.13;;
18364;SDS011;9309;52.126;11.616;2023-07-13T16:23:46;1.20;;;1.20;;
18364;SDS011;9309;52.126;11.616;2023-07-13T16:26:19;1.00;;;1.00;;
18364;SDS011;9309;52.126;11.616;2023-07-13T16:28:51;1.55;;;1.23;;
18364;SDS011;9309;52.126;11.616;2023-07-13T16:31:25;1.75;;;1.65;;
18364;SDS011;9309;52.126;11.616;2023-07-13T16:33:53;0.85;;;0.85;;
18364;SDS011;9309;52.126;11.616;2023-07-13T16:36:20;1.25;;;1.15;;
18364;SDS011;9309;52.126;11.616;2023-07-13T16:38:47;1.75;;;1.60;;
18364;SDS011;9309;52.126;11.616;2023-07-13T16:41:13;1.30;;;1.13;;
18364;SDS011;9309;52.126;11.616;2023-07-13T16:43:40;1.80;;;1.25;;
18364;SDS011;9309;52.126;11.616;2023-07-13T16:46:12;1.17;;;1.10;;
18364;SDS011;9309;52.126;11.616;2023-07-13T16:48:41;1.25;;;1.25;;
18364;SDS011;9309;52.126;11.616;2023-07-13T16:51:08;1.00;;;1.00;;
18364;SDS011;9309;52.126;11.616;2023-07-13T16:53:34;0.93;;;0.93;;
18364;SDS011;9309;52.126;11.616;2023-07-13T16:56:01;1.10;;;1.10;;
18364;SDS011;9309;52.126;11.616;2023-07-13T16:58:31;0.75;;;0.75;;
18364;SDS011;9309;52.126;11.616;2023-07-13T17:01:00;1.20;;;1.00;;
18364;SDS011;9309;52.126;11.616;2023-07-13T17:03:30;1.10;;;1.10;;
18364;SDS011;9309;52.126;11.616;2023-07-13T17:05:58;1.20;;;1.10;;
18364;SDS011;9309;52.126;11.616;2023-07-13T17:08:27;0.80;;;0.80;;
18364;SDS011;9309;52.126;11.616;2023-07-13T17:10:57;0.95;;;0.95;;
18364;SDS011;9309;52.126;11.616;2023-07-13T17:13:26;1.08;;;1.08;;
18364;SDS011;9309;52.126;11.616;2023-07-13T17:15:54;1.20;;;1.20;;
18364;SDS011;9309;52.126;11.616;2023-07-13T17:18:23;1.10;;;1.10;;
18364;SDS011;9309;52.126;11.616;2023-07-13T17:20:53;0.85;;;0.85;;
18364;SDS011;9309;52.126;11.616;2023-07-13T17:23:22;5.82;;;1.27;;
18364;SDS011;9309;52.126;11.616;2023-07-13T17:25:50;0.90;;;0.90;;
18364;SDS011;9309;52.126;11.616;2023-07-13T17:28:19;1.73;;;1.13;;
18364;SDS011;9309;52.126;11.616;2023-07-13T17:30:47;0.88;;;0.88;;
18364;SDS011;9309;52.126;11.616;2023-07-13T17:33:21;1.05;;;1.05;;
18364;SDS011;9309;52.126;11.616;2023-07-13T17:35:56;0.93;;;0.93;;
18364;SDS011;9309;52.126;11.616;2023-07-13T17:38:26;2.22;;;1.65;;
18364;SDS011;9309;52.126;11.616;2023-07-13T17:40:57;1.25;;;1.23;;
18364;SDS011;9309;52.126;11.616;2023-07-13T17:43:25;1.58;;;0.90;;
18364;SDS011;9309;52.126;11.616;2023-07-13T17:45:52;1.10;;;1.10;;
18364;SDS011;9309;52.126;11.616;2023-07-13T17:48:20;1.48;;;0.85;;
18364;SDS011;9309;52.126;11.616;2023-07-13T17:50:48;0.93;;;0.93;;
18364;SDS011;9309;52.126;11.616;2023-07-13T17:53:18;1.20;;;1.00;;
18364;SDS011;9309;52.126;11.616;2023-07-13T17:55:46;1.00;;;1.00;;
18364;SDS011;9309;52.126;11.616;2023-07-13T17:58:14;1.10;;;1.10;;
18364;SDS011;9309;52.126;11.616;2023-07-13T18:00:42;1.50;;;0.80;;
18364;SDS011;9309;52.126;11.616;2023-07-13T18:03:14;1.23;;;1.08;;
18364;SDS011;9309;52.126;11.616;2023-07-13T18:05:44;1.02;;;1.02;;
18364;SDS011;9309;52.126;11.616;2023-07-13T18:08:19;0.90;;;0.90;;
18364;SDS011;9309;52.126;11.616;2023-07-13T18:10:48;1.08;;;1.08;;
18364;SDS011;9309;52.126;11.616;2023-07-13T18:13:16;1.13;;;1.13;;
18364;SDS011;9309;52.126;11.616;2023-07-13T18:15:43;2.08;;;1.33;;
18364;SDS011;9309;52.126;11.616;2023-07-13T18:18:12;3.22;;;1.20;;
18364;SDS011;9309;52.126;11.616;2023-07-13T18:20:39;1.65;;;1.17;;
18364;SDS011;9309;52.126;11.616;2023-07-13T18:23:13;1.13;;;1.00;;
18364;SDS011;9309;52.126;11.616;2023-07-13T18:25:44;1.42;;;1.02;;
18364;SDS011;9309;52.126;11.616;2023-07-13T18:28:12;0.85;;;0.85;;
18364;SDS011;9309;52.126;11.616;2023-07-13T18:30:40;0.93;;;0.93;;
18364;SDS011;9309;52.126;11.616;2023-07-13T18:33:10;1.02;;;1.02;;
18364;SDS011;9309;52.126;11.616;2023-07-13T18:35:45;1.65;;;1.00;;
18364;SDS011;9309;52.126;11.616;2023-07-13T18:38:14;1.50;;;1.40;;
18364;SDS011;9309;52.126;11.616;2023-07-13T18:40:44;0.98;;;0.90;;
18364;SDS011;9309;52.126;11.616;2023-07-13T18:43:12;0.80;;;0.80;;
18364;SDS011;9309;52.126;11.616;2023-07-13T18:45:39;3.25;;;1.20;;
18364;SDS011;9309;52.126;11.616;2023-07-13T18:48:07;1.23;;;1.13;;
18364;SDS011;9309;52.126;11.616;2023-07-13T18:50:38;1.30;;;1.30;;